createdAt,value
2018-07-25T00:00:19.925Z,21.70
2018-07-25T00:02:48.373Z,21.69
2018-07-25T00:05:17.717Z,21.69
2018-07-25T00:07:46.597Z,21.67
2018-07-25T00:10:15.046Z,21.67
2018-07-25T00:12:43.867Z,21.63
2018-07-25T00:15:12.639Z,21.62
2018-07-25T00:17:41.295Z,21.60
2018-07-25T00:20:10.538Z,21.60
2018-07-25T00:22:39.289Z,21.58
2018-07-25T00:25:08.387Z,21.56
2018-07-25T00:27:37.422Z,21.54
2018-07-25T00:30:06.204Z,21.53
2018-07-25T00:32:34.920Z,21.52
2018-07-25T00:35:03.794Z,21.52
2018-07-25T00:37:32.257Z,21.49
2018-07-25T00:40:00.986Z,21.50
2018-07-25T00:42:29.929Z,21.50
2018-07-25T00:44:58.405Z,21.48
2018-07-25T00:47:26.898Z,21.46
2018-07-25T00:49:55.589Z,21.45
2018-07-25T00:52:24.049Z,21.42
2018-07-25T00:54:52.509Z,21.40
2018-07-25T00:57:21.334Z,21.39
2018-07-25T00:59:49.884Z,21.37
2018-07-25T01:02:18.361Z,21.37
2018-07-25T01:04:47.697Z,21.39
2018-07-25T01:07:16.162Z,21.38
2018-07-25T01:09:44.943Z,21.38
2018-07-25T01:12:13.844Z,21.39
2018-07-25T01:14:42.605Z,21.39
2018-07-25T01:17:11.264Z,21.37
2018-07-25T01:19:40.214Z,21.37
2018-07-25T01:22:08.950Z,21.35
2018-07-25T01:24:38.397Z,21.32
2018-07-25T01:27:07.358Z,21.30
2018-07-25T01:29:36.244Z,21.28
2018-07-25T01:32:04.933Z,21.26
2018-07-25T01:34:33.408Z,21.26
2018-07-25T01:37:01.924Z,21.23
2018-07-25T01:39:30.961Z,21.21
2018-07-25T01:41:59.826Z,21.09
2018-07-25T01:44:28.389Z,21.19
2018-07-25T01:46:57.681Z,21.17
2018-07-25T01:49:27.106Z,21.17
2018-07-25T01:51:55.915Z,21.15
2018-07-25T01:54:24.616Z,21.15
2018-07-25T01:56:53.465Z,21.14
2018-07-25T01:59:22.317Z,21.13
2018-07-25T02:01:50.756Z,21.10
2018-07-25T02:04:19.829Z,21.10
2018-07-25T02:06:48.421Z,21.08
2018-07-25T02:09:16.853Z,21.07
2018-07-25T02:11:45.985Z,21.05
2018-07-25T02:14:14.747Z,21.05
2018-07-25T02:16:43.459Z,21.06
2018-07-25T02:19:12.009Z,21.04
2018-07-25T02:21:40.436Z,21.04
2018-07-25T02:24:09.506Z,21.04
2018-07-25T02:26:38.325Z,21.04
2018-07-25T02:29:07.266Z,21.02
2018-07-25T02:31:36.130Z,21.03
2018-07-25T02:34:09.825Z,21.02
2018-07-25T02:36:38.899Z,21.02
2018-07-25T02:39:09.937Z,20.87
2018-07-25T02:41:38.638Z,21.02
2018-07-25T02:44:07.397Z,21.03
2018-07-25T02:46:36.240Z,21.04
2018-07-25T02:49:04.733Z,21.04
2018-07-25T02:51:33.861Z,21.05
2018-07-25T02:54:03.245Z,21.07
2018-07-25T02:56:32.513Z,21.10
2018-07-25T02:59:01.655Z,21.10
2018-07-25T03:01:30.227Z,21.13
2018-07-25T03:03:58.809Z,21.13
2018-07-25T03:06:27.908Z,21.16
2018-07-25T03:08:56.502Z,21.16
2018-07-25T03:11:25.249Z,21.23
2018-07-25T03:13:54.209Z,21.24
2018-07-25T03:16:22.695Z,21.23
2018-07-25T03:18:51.155Z,21.24
2018-07-25T03:21:19.996Z,21.23
2018-07-25T03:23:48.665Z,21.24
2018-07-25T03:26:17.168Z,21.24
2018-07-25T03:28:46.010Z,21.26
2018-07-25T03:31:14.859Z,21.27
2018-07-25T03:33:43.321Z,21.28
2018-07-25T03:36:12.088Z,21.30
2018-07-25T03:38:40.542Z,21.32
2018-07-25T03:41:09.010Z,21.33
2018-07-25T03:43:38.010Z,21.35
2018-07-25T03:46:06.846Z,21.37
2018-07-25T03:48:35.326Z,21.40
2018-07-25T03:51:04.052Z,21.44
2018-07-25T03:53:32.890Z,21.46
2018-07-25T03:56:01.405Z,21.48
2018-07-25T03:58:30.208Z,21.50
2018-07-25T04:00:58.665Z,21.52
2018-07-25T04:03:28.025Z,21.53
2018-07-25T04:05:57.153Z,21.57
2018-07-25T04:08:25.923Z,21.62
2018-07-25T04:10:54.740Z,20.95
2018-07-25T04:13:23.449Z,21.69
2018-07-25T04:15:52.297Z,21.74
2018-07-25T04:18:21.085Z,21.79
2018-07-25T04:20:49.909Z,21.83
2018-07-25T04:23:18.361Z,21.86
2018-07-25T04:25:47.044Z,21.90
2018-07-25T04:28:15.965Z,21.95
2018-07-25T04:30:44.409Z,22.00
2018-07-25T04:33:13.209Z,22.07
2018-07-25T04:35:42.248Z,22.12
2018-07-25T04:38:10.669Z,22.15
2018-07-25T04:40:39.149Z,22.19
2018-07-25T04:43:08.573Z,22.24
2018-07-25T04:45:37.021Z,22.30
2018-07-25T04:48:05.967Z,22.38
2018-07-25T04:50:34.789Z,22.42
2018-07-25T04:53:03.481Z,22.47
2018-07-25T04:55:32.139Z,22.53
2018-07-25T04:58:00.856Z,22.58
2018-07-25T05:00:29.772Z,22.62
2018-07-25T05:02:58.366Z,22.67
2018-07-25T05:05:27.093Z,22.70
2018-07-25T05:07:56.497Z,22.74
2018-07-25T05:10:25.239Z,22.79
2018-07-25T05:12:54.052Z,22.86
2018-07-25T05:15:22.505Z,22.91
2018-07-25T05:17:51.336Z,22.97
2018-07-25T05:20:20.145Z,23.04
2018-07-25T05:22:48.587Z,23.09
2018-07-25T05:25:17.333Z,23.14
2018-07-25T05:27:46.161Z,23.16
2018-07-25T05:30:14.763Z,23.23
2018-07-25T05:32:43.253Z,23.30
2018-07-25T05:35:12.487Z,23.36
2018-07-25T05:37:40.933Z,23.43
2018-07-25T05:40:09.833Z,23.47
2018-07-25T05:42:39.296Z,23.51
2018-07-25T05:45:08.034Z,23.56
2018-07-25T05:47:36.530Z,23.63
2018-07-25T05:50:06.634Z,23.71
2018-07-25T05:52:35.331Z,23.76
2018-07-25T05:55:04.554Z,23.81
2018-07-25T05:57:33.294Z,23.84
2018-07-25T06:00:02.401Z,23.90
2018-07-25T06:02:31.337Z,23.98
2018-07-25T06:05:00.189Z,24.07
2018-07-25T06:07:28.645Z,24.13
2018-07-25T06:09:57.369Z,24.15
2018-07-25T06:12:27.676Z,24.23
2018-07-25T06:14:56.137Z,24.25
2018-07-25T06:17:24.985Z,24.33
2018-07-25T06:19:53.787Z,24.41
2018-07-25T06:22:22.357Z,24.47
2018-07-25T06:24:51.045Z,24.57
2018-07-25T06:27:19.770Z,24.66
2018-07-25T06:29:48.236Z,24.74
2018-07-25T06:32:16.914Z,24.80
2018-07-25T06:34:45.470Z,24.88
2018-07-25T06:37:14.229Z,24.95
2018-07-25T06:39:42.833Z,25.00
2018-07-25T06:42:11.358Z,25.06
2018-07-25T06:44:39.921Z,25.12
2018-07-25T06:47:08.397Z,25.16
2018-07-25T06:49:36.867Z,25.18
2018-07-25T06:52:06.096Z,25.27
2018-07-25T06:54:34.601Z,25.37
2018-07-25T06:57:03.059Z,25.48
2018-07-25T06:59:31.681Z,25.59
2018-07-25T07:02:00.290Z,25.69
2018-07-25T07:04:29.292Z,25.78
2018-07-25T07:06:58.094Z,25.87
2018-07-25T07:09:27.061Z,25.94
2018-07-25T07:11:56.502Z,26.07
2018-07-25T07:14:25.165Z,26.15
2018-07-25T07:16:54.037Z,26.23
2018-07-25T07:19:22.941Z,26.33
2018-07-25T07:21:51.395Z,26.44
2018-07-25T07:24:20.078Z,26.60
2018-07-25T07:26:48.934Z,26.73
2018-07-25T07:29:17.429Z,26.84
2018-07-25T07:31:46.391Z,27.03
2018-07-25T07:34:14.910Z,27.27
2018-07-25T07:36:43.405Z,27.72
2018-07-25T07:39:13.853Z,28.50
2018-07-25T07:41:42.973Z,28.98
2018-07-25T07:44:11.611Z,29.40
2018-07-25T07:46:40.185Z,29.83
2018-07-25T07:49:09.236Z,29.84
2018-07-25T07:51:38.083Z,29.73
2018-07-25T07:54:06.710Z,30.18
2018-07-25T07:56:35.148Z,30.52
2018-07-25T07:59:03.809Z,31.03
2018-07-25T08:01:32.402Z,31.17
2018-07-25T08:04:01.337Z,31.20
2018-07-25T08:06:29.973Z,31.39
2018-07-25T08:08:58.838Z,31.95
2018-07-25T08:11:27.333Z,31.57
2018-07-25T08:13:55.769Z,31.60
2018-07-25T08:16:24.606Z,31.84
2018-07-25T08:18:53.140Z,31.83
2018-07-25T08:21:21.561Z,31.54
2018-07-25T08:23:50.061Z,32.09
2018-07-25T08:26:18.937Z,32.44
2018-07-25T08:28:47.368Z,32.36
2018-07-25T08:31:16.106Z,32.68
2018-07-25T08:33:44.709Z,32.85
2018-07-25T08:36:13.160Z,32.96
2018-07-25T08:38:43.066Z,33.34
2018-07-25T08:41:11.993Z,33.39
2018-07-25T08:43:41.986Z,33.17
2018-07-25T08:46:11.665Z,33.18
2018-07-25T08:48:41.122Z,33.48
2018-07-25T08:51:09.705Z,33.65
2018-07-25T08:53:38.837Z,33.60
2018-07-25T08:56:07.765Z,33.28
2018-07-25T08:58:36.406Z,33.53
2018-07-25T09:01:05.000Z,33.72
2018-07-25T09:03:33.602Z,33.70
2018-07-25T09:06:02.644Z,33.90
2018-07-25T09:08:31.765Z,33.92
2018-07-25T09:11:00.458Z,34.05
2018-07-25T09:13:29.089Z,34.27
2018-07-25T09:15:58.078Z,34.17
2018-07-25T09:18:26.960Z,34.08
2018-07-25T09:20:55.585Z,34.41
2018-07-25T09:23:24.265Z,34.29
2018-07-25T09:25:53.185Z,34.50
2018-07-25T09:28:21.946Z,34.79
2018-07-25T09:30:50.725Z,34.85
2018-07-25T09:33:19.393Z,34.92
2018-07-25T09:35:47.848Z,34.50
2018-07-25T09:38:16.347Z,34.35
2018-07-25T09:40:45.399Z,34.54
2018-07-25T09:43:14.029Z,35.09
2018-07-25T09:45:42.549Z,35.17
2018-07-25T09:48:11.353Z,35.14
2018-07-25T09:50:40.469Z,35.07
2018-07-25T09:53:09.096Z,35.34
2018-07-25T09:55:37.694Z,35.46
2018-07-25T09:58:06.481Z,35.52
2018-07-25T10:00:40.540Z,35.54
2018-07-25T10:03:09.382Z,35.57
2018-07-25T10:05:37.949Z,35.51
2018-07-25T10:08:06.823Z,35.63
2018-07-25T10:10:35.433Z,35.92
2018-07-25T10:13:04.729Z,35.93
2018-07-25T10:15:33.377Z,35.40
2018-07-25T10:18:02.114Z,35.26
2018-07-25T10:20:30.717Z,35.29
2018-07-25T10:22:59.225Z,35.58
2018-07-25T10:25:28.067Z,35.63
2018-07-25T10:27:57.515Z,35.85
2018-07-25T10:30:26.009Z,36.05
2018-07-25T10:32:54.725Z,36.26
2018-07-25T10:35:23.593Z,36.24
2018-07-25T10:37:52.077Z,36.49
2018-07-25T10:40:20.894Z,36.76
2018-07-25T10:42:49.453Z,36.80
2018-07-25T10:45:18.013Z,36.43
2018-07-25T10:47:46.973Z,36.26
2018-07-25T10:50:15.631Z,36.49
2018-07-25T10:52:44.293Z,36.57
2018-07-25T10:55:13.524Z,36.59
2018-07-25T10:57:41.991Z,36.57
2018-07-25T11:00:10.529Z,36.53
2018-07-25T11:02:39.392Z,36.54
2018-07-25T11:05:08.198Z,36.38
2018-07-25T11:07:36.795Z,36.55
2018-07-25T11:10:05.950Z,36.65
2018-07-25T11:12:34.729Z,36.77
2018-07-25T11:15:03.253Z,36.82
2018-07-25T11:17:32.019Z,36.80
2018-07-25T11:20:00.685Z,36.90
2018-07-25T11:22:29.513Z,36.48
2018-07-25T11:24:58.358Z,36.06
2018-07-25T11:27:27.025Z,35.81
2018-07-25T11:29:55.680Z,35.62
2018-07-25T11:32:24.458Z,35.32
2018-07-25T11:34:53.093Z,35.46
2018-07-25T11:37:21.973Z,35.50
2018-07-25T11:39:51.398Z,35.45
2018-07-25T11:42:19.856Z,35.36
2018-07-25T11:44:48.348Z,35.87
2018-07-25T11:47:17.446Z,36.01
2018-07-25T11:49:45.905Z,36.17
2018-07-25T11:52:14.365Z,36.24
2018-07-25T11:54:43.505Z,36.08
2018-07-25T11:57:12.039Z,35.89
2018-07-25T11:59:40.519Z,35.89
2018-07-25T12:02:09.039Z,35.97
2018-07-25T12:04:37.793Z,36.24
2018-07-25T12:07:06.345Z,36.19
2018-07-25T12:09:35.005Z,36.26
2018-07-25T12:12:03.682Z,36.20
2018-07-25T12:14:32.261Z,36.02
2018-07-25T12:17:01.121Z,36.31
2018-07-25T12:19:29.709Z,36.54
2018-07-25T12:21:58.588Z,36.54
2018-07-25T12:24:27.136Z,36.83
2018-07-25T12:26:55.677Z,36.99
2018-07-25T12:29:25.078Z,36.98
2018-07-25T12:31:53.700Z,36.97
2018-07-25T12:34:22.196Z,37.15
2018-07-25T12:36:51.055Z,37.17
2018-07-25T12:39:19.645Z,37.01
2018-07-25T12:41:48.110Z,36.72
2018-07-25T12:44:17.085Z,37.05
2018-07-25T12:46:45.905Z,37.24
2018-07-25T12:49:14.397Z,37.18
2018-07-25T12:51:43.137Z,37.27
2018-07-25T12:54:11.833Z,37.76
2018-07-25T12:56:40.373Z,38.25
2018-07-25T12:59:08.997Z,38.80
2018-07-25T13:01:37.534Z,39.00
2018-07-25T13:04:06.291Z,38.47
2018-07-25T13:06:35.236Z,37.80
2018-07-25T13:09:05.104Z,37.44
2018-07-25T13:11:33.550Z,37.26
2018-07-25T13:14:02.102Z,37.86
2018-07-25T13:16:31.113Z,38.43
2018-07-25T13:18:59.578Z,38.56
2018-07-25T13:21:28.677Z,39.11
2018-07-25T13:23:58.425Z,39.29
2018-07-25T13:26:31.326Z,39.27
2018-07-25T13:29:02.742Z,39.21
2018-07-25T13:31:31.725Z,39.63
2018-07-25T13:34:00.193Z,39.68
2018-07-25T13:36:28.797Z,39.79
2018-07-25T13:38:57.954Z,39.50
2018-07-25T13:41:26.430Z,38.96
2018-07-25T13:43:54.923Z,38.95
2018-07-25T13:46:24.451Z,39.40
2018-07-25T13:48:53.293Z,39.21
2018-07-25T13:51:21.830Z,39.43
2018-07-25T13:53:50.566Z,39.68
2018-07-25T13:56:19.385Z,39.68
2018-07-25T13:58:48.099Z,39.77
2018-07-25T14:01:17.282Z,40.51
2018-07-25T14:03:46.090Z,40.39
2018-07-25T14:06:14.653Z,40.34
2018-07-25T14:08:43.709Z,40.51
2018-07-25T14:11:12.649Z,40.61
2018-07-25T14:13:41.106Z,39.84
2018-07-25T14:16:10.061Z,39.36
2018-07-25T14:18:38.821Z,39.17
2018-07-25T14:21:07.342Z,39.22
2018-07-25T14:23:36.804Z,39.06
2018-07-25T14:26:05.282Z,38.86
2018-07-25T14:28:33.959Z,39.11
2018-07-25T14:31:03.006Z,39.17
2018-07-25T14:33:31.485Z,39.10
2018-07-25T14:35:59.965Z,39.20
2018-07-25T14:38:28.629Z,39.14
2018-07-25T14:40:58.373Z,39.10
2018-07-25T14:43:27.022Z,39.15
2018-07-25T14:45:55.521Z,39.77
2018-07-25T14:48:24.495Z,40.07
2018-07-25T14:50:52.959Z,39.76
2018-07-25T14:53:21.771Z,39.43
2018-07-25T14:55:50.626Z,39.26
2018-07-25T14:58:19.582Z,39.33
2018-07-25T15:00:48.546Z,39.23
2018-07-25T15:03:17.066Z,38.62
2018-07-25T15:05:45.606Z,38.31
2018-07-25T15:08:14.452Z,38.35
2018-07-25T15:10:42.944Z,38.56
2018-07-25T15:13:12.066Z,38.50
2018-07-25T15:15:41.085Z,38.23
2018-07-25T15:18:09.585Z,38.42
2018-07-25T15:20:38.090Z,38.40
2018-07-25T15:23:06.915Z,38.05
2018-07-25T15:25:35.485Z,37.86
2018-07-25T15:28:04.006Z,37.61
2018-07-25T15:30:32.977Z,37.82
2018-07-25T15:33:01.487Z,37.61
2018-07-25T15:35:29.953Z,37.34
2018-07-25T15:37:58.501Z,37.21
2018-07-25T15:40:26.961Z,37.09
2018-07-25T15:42:55.437Z,37.42
2018-07-25T15:45:24.314Z,37.67
2018-07-25T15:47:52.765Z,37.78
2018-07-25T15:50:21.653Z,37.53
2018-07-25T15:52:50.316Z,37.16
2018-07-25T15:55:18.981Z,37.22
2018-07-25T15:57:47.549Z,37.07
2018-07-25T16:00:16.078Z,37.09
2018-07-25T16:02:51.765Z,37.06
2018-07-25T16:05:20.713Z,36.53
2018-07-25T16:07:49.189Z,36.36
2018-07-25T16:10:18.080Z,36.73
2018-07-25T16:12:46.889Z,36.59
2018-07-25T16:15:15.369Z,36.40
2018-07-25T16:17:44.265Z,36.42
2018-07-25T16:20:12.796Z,36.40
2018-07-25T16:22:41.661Z,36.03
2018-07-25T16:25:10.193Z,35.76
2018-07-25T16:27:38.749Z,35.90
2018-07-25T16:30:07.449Z,36.23
2018-07-25T16:32:35.979Z,36.09
2018-07-25T16:35:05.361Z,35.86
2018-07-25T16:37:34.082Z,35.95
2018-07-25T16:40:03.041Z,35.69
2018-07-25T16:42:32.311Z,35.49
2018-07-25T16:45:00.811Z,35.59
2018-07-25T16:47:29.386Z,35.14
2018-07-25T16:49:59.313Z,35.00
2018-07-25T16:52:27.781Z,35.58
2018-07-25T16:54:57.309Z,35.67
2018-07-25T16:57:26.323Z,35.25
2018-07-25T16:59:54.783Z,34.70
2018-07-25T17:02:23.359Z,33.87
2018-07-25T17:04:52.146Z,33.60
2018-07-25T17:07:20.684Z,33.53
2018-07-25T17:09:49.151Z,33.39
2018-07-25T17:12:17.672Z,33.13
2018-07-25T17:14:46.233Z,32.55
2018-07-25T17:17:14.717Z,32.00
2018-07-25T17:19:43.225Z,31.61
2018-07-25T17:22:11.684Z,31.16
2018-07-25T17:24:40.122Z,30.84
2018-07-25T17:27:09.193Z,30.49
2018-07-25T17:29:37.722Z,30.23
2018-07-25T17:32:06.681Z,30.01
2018-07-25T17:34:35.153Z,29.89
2018-07-25T17:37:03.685Z,29.61
2018-07-25T17:39:32.161Z,29.49
2018-07-25T17:42:01.078Z,29.26
2018-07-25T17:44:29.821Z,29.13
2018-07-25T17:46:58.463Z,29.09
2018-07-25T17:49:27.661Z,28.85
2018-07-25T17:51:56.330Z,28.69
2018-07-25T17:54:24.953Z,28.48
2018-07-25T17:56:54.378Z,28.29
2018-07-25T17:59:22.821Z,28.20
2018-07-25T18:01:51.293Z,28.12
2018-07-25T18:04:19.989Z,28.04
2018-07-25T18:06:48.613Z,27.89
2018-07-25T18:09:17.114Z,27.75
2018-07-25T18:11:46.220Z,27.70
2018-07-25T18:14:15.784Z,27.69
2018-07-25T18:16:45.278Z,27.65
2018-07-25T18:19:15.205Z,27.55
2018-07-25T18:21:44.079Z,27.48
2018-07-25T18:24:13.011Z,27.41
2018-07-25T18:26:41.664Z,27.37
2018-07-25T18:29:10.779Z,27.32
2018-07-25T18:31:39.535Z,27.24
2018-07-25T18:34:08.386Z,27.16
2018-07-25T18:36:37.091Z,27.09
2018-07-25T18:39:08.286Z,27.00
2018-07-25T18:41:36.862Z,26.83
2018-07-25T18:44:05.350Z,26.75
2018-07-25T18:46:34.406Z,26.69
2018-07-25T18:49:02.930Z,26.62
2018-07-25T18:51:31.428Z,26.57
2018-07-25T18:54:00.981Z,26.47
2018-07-25T18:56:30.278Z,26.43
2018-07-25T18:58:59.183Z,26.37
2018-07-25T19:01:27.990Z,26.31
2018-07-25T19:03:57.109Z,26.27
2018-07-25T19:06:26.307Z,26.19
2018-07-25T19:08:54.937Z,26.07
2018-07-25T19:11:24.100Z,26.01
2018-07-25T19:14:01.997Z,25.98
2018-07-25T19:16:30.584Z,25.92
2018-07-25T19:18:59.193Z,25.88
2018-07-25T19:21:28.531Z,25.80
2018-07-25T19:23:57.001Z,25.75
2018-07-25T19:26:26.227Z,25.70
2018-07-25T19:28:55.178Z,25.64
2018-07-25T19:31:24.312Z,25.63
2018-07-25T19:33:53.017Z,25.59
2018-07-25T19:36:21.878Z,25.51
2018-07-25T19:38:50.474Z,25.46
2018-07-25T19:41:19.164Z,25.37
2018-07-25T19:43:48.021Z,25.32
2018-07-25T19:46:17.135Z,25.26
2018-07-25T19:48:45.593Z,25.23
2018-07-25T19:51:14.079Z,25.15
2018-07-25T19:53:43.100Z,25.10
2018-07-25T19:56:11.932Z,24.89
2018-07-25T19:58:40.512Z,24.99
2018-07-25T20:01:09.759Z,24.94
2018-07-25T20:03:39.898Z,24.92
2018-07-25T20:06:08.397Z,24.88
2018-07-25T20:08:37.174Z,24.81
2018-07-25T20:11:06.250Z,23.93
2018-07-25T20:13:34.822Z,24.76
2018-07-25T20:16:03.717Z,24.69
2018-07-25T20:18:32.197Z,24.65
2018-07-25T20:21:01.583Z,24.60
2018-07-25T20:23:30.173Z,24.56
2018-07-25T20:26:02.062Z,24.56
2018-07-25T20:28:34.153Z,24.47
2018-07-25T20:31:03.230Z,24.38
2018-07-25T20:33:33.897Z,24.30
2018-07-25T20:36:02.991Z,24.33
2018-07-25T20:38:31.970Z,24.35
2018-07-25T20:41:00.454Z,24.32
2018-07-25T20:43:29.237Z,24.24
2018-07-25T20:45:58.125Z,24.21
2018-07-25T20:48:26.606Z,24.21
2018-07-25T20:50:55.367Z,24.12
2018-07-25T20:53:24.165Z,24.07
2018-07-25T20:55:52.604Z,23.98
2018-07-25T20:58:21.083Z,23.92
2018-07-25T21:00:50.105Z,23.89
2018-07-25T21:03:18.568Z,23.88
2018-07-25T21:05:47.134Z,23.86
2018-07-25T21:08:16.601Z,23.84
2018-07-25T21:10:45.463Z,23.85
2018-07-25T21:13:14.089Z,23.77
2018-07-25T21:15:42.738Z,23.74
2018-07-25T21:18:11.542Z,23.69
2018-07-25T21:20:39.976Z,23.66
2018-07-25T21:23:08.806Z,23.63
2018-07-25T21:25:37.483Z,23.63
2018-07-25T21:28:06.273Z,23.62
2018-07-25T21:30:35.058Z,23.61
2018-07-25T21:33:03.502Z,23.60
2018-07-25T21:35:32.222Z,23.65
2018-07-25T21:38:01.022Z,23.58
2018-07-25T21:40:29.610Z,23.47
2018-07-25T21:42:58.115Z,23.44
2018-07-25T21:45:27.264Z,23.42
2018-07-25T21:47:56.001Z,23.42
2018-07-25T21:50:24.513Z,23.39
2018-07-25T21:52:53.625Z,23.40
2018-07-25T21:55:22.725Z,23.38
2018-07-25T21:57:51.193Z,23.38
2018-07-25T22:00:20.361Z,23.32
2018-07-25T22:02:48.994Z,23.35
2018-07-25T22:05:17.468Z,23.35
2018-07-25T22:07:46.574Z,23.34
2018-07-25T22:10:15.401Z,23.27
2018-07-25T22:12:43.834Z,23.20
2018-07-25T22:15:13.102Z,23.17
2018-07-25T22:17:41.740Z,23.17
2018-07-25T22:20:12.254Z,23.15
2018-07-25T22:22:41.205Z,23.14
2018-07-25T22:25:10.710Z,23.12
2018-07-25T22:27:40.325Z,23.11
2018-07-25T22:30:09.182Z,23.07
2018-07-25T22:32:37.837Z,22.97
2018-07-25T22:35:06.700Z,22.97
2018-07-25T22:37:35.682Z,22.98
2018-07-25T22:40:04.631Z,23.02
2018-07-25T22:42:33.105Z,22.98
2018-07-25T22:45:02.345Z,22.91
2018-07-25T22:47:30.773Z,22.85
2018-07-25T22:49:59.265Z,22.84
2018-07-25T22:52:28.645Z,22.86
2018-07-25T22:54:57.502Z,22.83
2018-07-25T22:57:25.957Z,22.81
2018-07-25T22:59:54.779Z,22.83
2018-07-25T23:02:23.855Z,22.81
2018-07-25T23:04:52.365Z,22.83
2018-07-25T23:07:21.132Z,22.80
2018-07-25T23:09:49.941Z,22.79
2018-07-25T23:12:18.489Z,22.80
2018-07-25T23:14:47.513Z,22.75
2018-07-25T23:17:16.640Z,22.73
2018-07-25T23:19:45.139Z,22.75
2018-07-25T23:22:13.976Z,22.76
2018-07-25T23:24:42.691Z,22.75
2018-07-25T23:27:11.703Z,22.71
2018-07-25T23:29:40.152Z,22.66
2018-07-25T23:32:09.626Z,22.63
2018-07-25T23:34:38.433Z,22.63
2018-07-25T23:39:34.409Z,22.65
2018-07-25T23:42:03.601Z,22.65
2018-07-25T23:44:32.636Z,22.66
2018-07-25T23:47:01.079Z,22.61
2018-07-25T23:49:29.725Z,22.60
2018-07-25T23:51:58.998Z,22.60
2018-07-25T23:54:27.713Z,22.54
2018-07-25T23:56:56.667Z,22.55
2018-07-25T23:59:25.484Z,22.56
